sensor_id;sensor_type;location;lat;lon;timestamp;P1;durP1;ratioP1;P2;durP2;ratioP2
8094;SDS011;4090;49.270;8.696;2023-10-13T00:01:29;12.27;;;7.82;;
8094;SDS011;4090;49.270;8.696;2023-10-13T00:04:11;13.90;;;7.80;;
8094;SDS011;4090;49.270;8.696;2023-10-13T00:07:11;10.10;;;7.22;;
8094;SDS011;4090;49.270;8.696;2023-10-13T00:10:12;12.43;;;7.65;;
8094;SDS011;4090;49.270;8.696;2023-10-13T00:12:54;18.15;;;7.82;;
8094;SDS011;4090;49.270;8.696;2023-10-13T00:15:46;14.60;;;7.53;;
8094;SDS011;4090;49.270;8.696;2023-10-13T00:18:38;15.98;;;8.73;;
8094;SDS011;4090;49.270;8.696;2023-10-13T00:21:22;16.42;;;7.95;;
8094;SDS011;4090;49.270;8.696;2023-10-13T00:24:12;13.05;;;7.60;;
8094;SDS011;4090;49.270;8.696;2023-10-13T00:26:54;15.68;;;8.00;;
8094;SDS011;4090;49.270;8.696;2023-10-13T00:29:37;12.73;;;7.32;;
8094;SDS011;4090;49.270;8.696;2023-10-13T00:32:24;13.93;;;7.47;;
8094;SDS011;4090;49.270;8.696;2023-10-13T00:35:09;17.70;;;7.30;;
8094;SDS011;4090;49.270;8.696;2023-10-13T00:37:51;12.02;;;7.78;;
8094;SDS011;4090;49.270;8.696;2023-10-13T00:40:34;17.48;;;8.50;;
8094;SDS011;4090;49.270;8.696;2023-10-13T00:43:23;16.00;;;7.88;;
8094;SDS011;4090;49.270;8.696;2023-10-13T00:46:15;13.45;;;7.45;;
8094;SDS011;4090;49.270;8.696;2023-10-13T00:48:59;13.52;;;6.95;;
8094;SDS011;4090;49.270;8.696;2023-10-13T00:51:43;16.45;;;7.68;;
8094;SDS011;4090;49.270;8.696;2023-10-13T00:54:27;16.05;;;8.05;;
8094;SDS011;4090;49.270;8.696;2023-10-13T00:57:08;16.25;;;7.50;;
8094;SDS011;4090;49.270;8.696;2023-10-13T01:00:06;15.65;;;8.60;;
8094;SDS011;4090;49.270;8.696;2023-10-13T01:02:59;12.30;;;7.57;;
8094;SDS011;4090;49.270;8.696;2023-10-13T01:05:47;13.38;;;7.68;;
8094;SDS011;4090;49.270;8.696;2023-10-13T01:08:35;12.98;;;7.40;;
8094;SDS011;4090;49.270;8.696;2023-10-13T01:11:18;13.73;;;7.50;;
8094;SDS011;4090;49.270;8.696;2023-10-13T01:14:00;18.77;;;7.82;;
8094;SDS011;4090;49.270;8.696;2023-10-13T01:16:44;13.07;;;7.68;;
8094;SDS011;4090;49.270;8.696;2023-10-13T01:19:26;13.60;;;6.90;;
8094;SDS011;4090;49.270;8.696;2023-10-13T01:22:08;14.75;;;6.95;;
8094;SDS011;4090;49.270;8.696;2023-10-13T01:24:51;14.57;;;7.22;;
8094;SDS011;4090;49.270;8.696;2023-10-13T01:27:44;14.63;;;7.53;;
8094;SDS011;4090;49.270;8.696;2023-10-13T01:30:29;15.90;;;7.32;;
8094;SDS011;4090;49.270;8.696;2023-10-13T01:33:12;13.02;;;7.35;;
8094;SDS011;4090;49.270;8.696;2023-10-13T01:35:52;13.63;;;7.90;;
8094;SDS011;4090;49.270;8.696;2023-10-13T01:38:35;15.43;;;7.13;;
8094;SDS011;4090;49.270;8.696;2023-10-13T01:41:19;14.48;;;7.05;;
8094;SDS011;4090;49.270;8.696;2023-10-13T01:44:02;14.07;;;6.88;;
8094;SDS011;4090;49.270;8.696;2023-10-13T01:46:44;12.55;;;7.35;;
8094;SDS011;4090;49.270;8.696;2023-10-13T01:49:28;13.85;;;7.57;;
8094;SDS011;4090;49.270;8.696;2023-10-13T01:52:10;12.05;;;7.18;;
8094;SDS011;4090;49.270;8.696;2023-10-13T01:54:52;12.93;;;6.82;;
8094;SDS011;4090;49.270;8.696;2023-10-13T01:57:36;11.10;;;7.05;;
8094;SDS011;4090;49.270;8.696;2023-10-13T02:00:17;13.95;;;7.38;;
8094;SDS011;4090;49.270;8.696;2023-10-13T02:03:00;17.02;;;7.18;;
8094;SDS011;4090;49.270;8.696;2023-10-13T02:05:42;11.68;;;7.43;;
8094;SDS011;4090;49.270;8.696;2023-10-13T02:08:27;10.93;;;6.15;;
8094;SDS011;4090;49.270;8.696;2023-10-13T02:11:08;13.13;;;6.18;;
8094;SDS011;4090;49.270;8.696;2023-10-13T02:13:53;13.57;;;6.25;;
8094;SDS011;4090;49.270;8.696;2023-10-13T02:16:36;12.15;;;6.03;;
8094;SDS011;4090;49.270;8.696;2023-10-13T02:19:18;11.98;;;6.00;;
8094;SDS011;4090;49.270;8.696;2023-10-13T02:21:59;7.13;;;5.10;;
8094;SDS011;4090;49.270;8.696;2023-10-13T02:24:43;12.57;;;5.63;;
8094;SDS011;4090;49.270;8.696;2023-10-13T02:27:26;11.57;;;5.35;;
8094;SDS011;4090;49.270;8.696;2023-10-13T02:30:10;12.82;;;5.97;;
8094;SDS011;4090;49.270;8.696;2023-10-13T02:32:55;8.27;;;5.50;;
8094;SDS011;4090;49.270;8.696;2023-10-13T02:35:38;7.80;;;4.68;;
8094;SDS011;4090;49.270;8.696;2023-10-13T02:38:22;14.88;;;4.75;;
8094;SDS011;4090;49.270;8.696;2023-10-13T02:41:15;8.25;;;5.20;;
8094;SDS011;4090;49.270;8.696;2023-10-13T02:44:06;10.77;;;4.93;;
8094;SDS011;4090;49.270;8.696;2023-10-13T02:46:52;13.88;;;5.18;;
8094;SDS011;4090;49.270;8.696;2023-10-13T02:49:36;10.55;;;5.13;;
8094;SDS011;4090;49.270;8.696;2023-10-13T02:52:18;12.05;;;5.03;;
8094;SDS011;4090;49.270;8.696;2023-10-13T02:55:00;11.27;;;5.72;;
8094;SDS011;4090;49.270;8.696;2023-10-13T02:57:49;7.82;;;4.70;;
8094;SDS011;4090;49.270;8.696;2023-10-13T03:00:30;8.82;;;4.85;;
8094;SDS011;4090;49.270;8.696;2023-10-13T03:03:13;9.18;;;4.95;;
8094;SDS011;4090;49.270;8.696;2023-10-13T03:05:58;9.35;;;4.75;;
8094;SDS011;4090;49.270;8.696;2023-10-13T03:08:41;11.50;;;4.88;;
8094;SDS011;4090;49.270;8.696;2023-10-13T03:11:24;8.27;;;4.65;;
8094;SDS011;4090;49.270;8.696;2023-10-13T03:14:05;8.10;;;4.75;;
8094;SDS011;4090;49.270;8.696;2023-10-13T03:16:47;8.93;;;4.57;;
8094;SDS011;4090;49.270;8.696;2023-10-13T03:19:30;9.15;;;4.63;;
8094;SDS011;4090;49.270;8.696;2023-10-13T03:22:15;12.15;;;5.00;;
8094;SDS011;4090;49.270;8.696;2023-10-13T03:24:56;7.63;;;4.65;;
8094;SDS011;4090;49.270;8.696;2023-10-13T03:27:46;9.07;;;5.10;;
8094;SDS011;4090;49.270;8.696;2023-10-13T03:30:41;6.93;;;4.63;;
8094;SDS011;4090;49.270;8.696;2023-10-13T03:33:23;9.65;;;5.35;;
8094;SDS011;4090;49.270;8.696;2023-10-13T03:36:09;9.77;;;5.22;;
8094;SDS011;4090;49.270;8.696;2023-10-13T03:39:07;9.35;;;5.22;;
8094;SDS011;4090;49.270;8.696;2023-10-13T03:41:51;8.18;;;4.55;;
8094;SDS011;4090;49.270;8.696;2023-10-13T03:44:34;8.63;;;4.93;;
8094;SDS011;4090;49.270;8.696;2023-10-13T03:47:19;10.60;;;4.95;;
8094;SDS011;4090;49.270;8.696;2023-10-13T03:50:07;11.13;;;5.30;;
8094;SDS011;4090;49.270;8.696;2023-10-13T03:53:11;10.27;;;4.82;;
8094;SDS011;4090;49.270;8.696;2023-10-13T03:55:53;8.55;;;5.32;;
8094;SDS011;4090;49.270;8.696;2023-10-13T03:58:48;12.88;;;5.20;;
8094;SDS011;4090;49.270;8.696;2023-10-13T04:01:34;10.68;;;5.70;;
8094;SDS011;4090;49.270;8.696;2023-10-13T04:04:26;9.40;;;5.00;;
8094;SDS011;4090;49.270;8.696;2023-10-13T04:07:16;9.50;;;4.80;;
8094;SDS011;4090;49.270;8.696;2023-10-13T04:10:17;11.30;;;5.63;;
8094;SDS011;4090;49.270;8.696;2023-10-13T04:13:16;12.95;;;5.25;;
8094;SDS011;4090;49.270;8.696;2023-10-13T04:16:16;11.55;;;4.97;;
8094;SDS011;4090;49.270;8.696;2023-10-13T04:19:12;7.57;;;4.50;;
8094;SDS011;4090;49.270;8.696;2023-10-13T04:22:02;10.13;;;5.10;;
8094;SDS011;4090;49.270;8.696;2023-10-13T04:24:54;8.32;;;5.03;;
8094;SDS011;4090;49.270;8.696;2023-10-13T04:27:42;11.10;;;4.85;;
8094;SDS011;4090;49.270;8.696;2023-10-13T04:33:32;9.23;;;4.35;;
8094;SDS011;4090;49.270;8.696;2023-10-13T04:36:23;9.23;;;4.97;;
8094;SDS011;4090;49.270;8.696;2023-10-13T04:39:25;9.30;;;5.63;;
8094;SDS011;4090;49.270;8.696;2023-10-13T04:42:15;12.45;;;5.00;;
8094;SDS011;4090;49.270;8.696;2023-10-13T04:45:18;11.30;;;5.47;;
8094;SDS011;4090;49.270;8.696;2023-10-13T04:48:19;8.18;;;5.07;;
8094;SDS011;4090;49.270;8.696;2023-10-13T04:51:10;8.98;;;4.93;;
8094;SDS011;4090;49.270;8.696;2023-10-13T04:54:30;9.68;;;4.90;;
8094;SDS011;4090;49.270;8.696;2023-10-13T04:57:25;8.00;;;4.90;;
8094;SDS011;4090;49.270;8.696;2023-10-13T05:00:13;8.20;;;4.97;;
8094;SDS011;4090;49.270;8.696;2023-10-13T05:03:33;8.02;;;4.32;;
8094;SDS011;4090;49.270;8.696;2023-10-13T05:06:32;6.65;;;4.78;;
8094;SDS011;4090;49.270;8.696;2023-10-13T05:09:31;9.60;;;4.65;;
8094;SDS011;4090;49.270;8.696;2023-10-13T05:12:49;11.45;;;4.72;;
8094;SDS011;4090;49.270;8.696;2023-10-13T05:16:18;7.88;;;4.88;;
8094;SDS011;4090;49.270;8.696;2023-10-13T05:19:19;9.07;;;5.18;;
8094;SDS011;4090;49.270;8.696;2023-10-13T05:22:18;11.57;;;4.90;;
8094;SDS011;4090;49.270;8.696;2023-10-13T05:25:18;7.82;;;4.88;;
8094;SDS011;4090;49.270;8.696;2023-10-13T05:28:17;9.23;;;4.75;;
8094;SDS011;4090;49.270;8.696;2023-10-13T05:31:35;8.90;;;5.50;;
8094;SDS011;4090;49.270;8.696;2023-10-13T05:34:36;13.55;;;5.10;;
8094;SDS011;4090;49.270;8.696;2023-10-13T05:37:54;9.93;;;5.03;;
8094;SDS011;4090;49.270;8.696;2023-10-13T05:41:12;12.00;;;5.40;;
8094;SDS011;4090;49.270;8.696;2023-10-13T05:44:12;9.73;;;5.25;;
8094;SDS011;4090;49.270;8.696;2023-10-13T05:47:11;8.13;;;4.72;;
8094;SDS011;4090;49.270;8.696;2023-10-13T05:50:12;10.10;;;5.85;;
8094;SDS011;4090;49.270;8.696;2023-10-13T05:53:09;13.00;;;5.72;;
8094;SDS011;4090;49.270;8.696;2023-10-13T05:56:09;9.05;;;5.00;;
8094;SDS011;4090;49.270;8.696;2023-10-13T05:59:08;12.27;;;5.40;;
8094;SDS011;4090;49.270;8.696;2023-10-13T06:02:07;11.68;;;5.53;;
8094;SDS011;4090;49.270;8.696;2023-10-13T06:05:07;11.38;;;5.00;;
8094;SDS011;4090;49.270;8.696;2023-10-13T06:08:09;8.70;;;5.10;;
8094;SDS011;4090;49.270;8.696;2023-10-13T06:11:08;8.85;;;4.63;;
8094;SDS011;4090;49.270;8.696;2023-10-13T06:14:08;10.35;;;5.05;;
8094;SDS011;4090;49.270;8.696;2023-10-13T06:17:08;10.18;;;5.53;;
8094;SDS011;4090;49.270;8.696;2023-10-13T06:20:07;10.57;;;5.28;;
8094;SDS011;4090;49.270;8.696;2023-10-13T06:23:07;6.72;;;4.65;;
8094;SDS011;4090;49.270;8.696;2023-10-13T06:26:08;8.50;;;5.53;;
8094;SDS011;4090;49.270;8.696;2023-10-13T06:29:07;10.80;;;5.30;;
8094;SDS011;4090;49.270;8.696;2023-10-13T06:31:50;6.85;;;4.88;;
8094;SDS011;4090;49.270;8.696;2023-10-13T06:34:32;10.45;;;5.03;;
8094;SDS011;4090;49.270;8.696;2023-10-13T06:37:23;9.55;;;5.10;;
8094;SDS011;4090;49.270;8.696;2023-10-13T06:40:12;12.30;;;5.57;;
8094;SDS011;4090;49.270;8.696;2023-10-13T06:43:02;15.80;;;6.40;;
8094;SDS011;4090;49.270;8.696;2023-10-13T06:45:56;10.35;;;6.78;;
8094;SDS011;4090;49.270;8.696;2023-10-13T06:48:40;13.32;;;7.88;;
8094;SDS011;4090;49.270;8.696;2023-10-13T06:51:24;14.70;;;7.45;;
8094;SDS011;4090;49.270;8.696;2023-10-13T06:54:11;18.10;;;8.73;;
8094;SDS011;4090;49.270;8.696;2023-10-13T06:57:01;14.90;;;7.50;;
8094;SDS011;4090;49.270;8.696;2023-10-13T06:59:44;7.60;;;5.10;;
8094;SDS011;4090;49.270;8.696;2023-10-13T07:02:26;14.85;;;5.72;;
8094;SDS011;4090;49.270;8.696;2023-10-13T07:05:13;11.20;;;5.93;;
8094;SDS011;4090;49.270;8.696;2023-10-13T07:07:55;12.82;;;6.07;;
8094;SDS011;4090;49.270;8.696;2023-10-13T07:10:46;14.02;;;6.22;;
8094;SDS011;4090;49.270;8.696;2023-10-13T07:13:33;10.27;;;5.70;;
8094;SDS011;4090;49.270;8.696;2023-10-13T07:16:18;13.38;;;6.10;;
8094;SDS011;4090;49.270;8.696;2023-10-13T07:19:00;12.00;;;6.13;;
8094;SDS011;4090;49.270;8.696;2023-10-13T07:21:45;11.82;;;5.97;;
8094;SDS011;4090;49.270;8.696;2023-10-13T07:24:27;10.63;;;6.53;;
8094;SDS011;4090;49.270;8.696;2023-10-13T07:27:11;14.32;;;6.70;;
8094;SDS011;4090;49.270;8.696;2023-10-13T07:30:04;11.15;;;6.10;;
8094;SDS011;4090;49.270;8.696;2023-10-13T07:32:54;13.85;;;6.40;;
8094;SDS011;4090;49.270;8.696;2023-10-13T07:35:39;10.68;;;6.18;;
8094;SDS011;4090;49.270;8.696;2023-10-13T07:38:22;10.75;;;6.82;;
8094;SDS011;4090;49.270;8.696;2023-10-13T07:41:04;11.55;;;6.70;;
8094;SDS011;4090;49.270;8.696;2023-10-13T07:43:49;10.52;;;6.13;;
8094;SDS011;4090;49.270;8.696;2023-10-13T07:46:32;10.68;;;5.88;;
8094;SDS011;4090;49.270;8.696;2023-10-13T07:49:15;10.73;;;5.90;;
8094;SDS011;4090;49.270;8.696;2023-10-13T07:52:00;10.65;;;6.05;;
8094;SDS011;4090;49.270;8.696;2023-10-13T07:54:55;11.43;;;6.07;;
8094;SDS011;4090;49.270;8.696;2023-10-13T07:57:51;14.43;;;5.80;;
8094;SDS011;4090;49.270;8.696;2023-10-13T08:00:36;11.63;;;5.97;;
8094;SDS011;4090;49.270;8.696;2023-10-13T08:03:35;7.80;;;4.97;;
8094;SDS011;4090;49.270;8.696;2023-10-13T08:06:24;9.32;;;5.65;;
8094;SDS011;4090;49.270;8.696;2023-10-13T08:09:09;9.95;;;6.00;;
8094;SDS011;4090;49.270;8.696;2023-10-13T08:12:09;13.88;;;5.65;;
8094;SDS011;4090;49.270;8.696;2023-10-13T08:14:52;13.25;;;5.90;;
8094;SDS011;4090;49.270;8.696;2023-10-13T08:17:53;10.38;;;5.95;;
8094;SDS011;4090;49.270;8.696;2023-10-13T08:20:40;11.55;;;5.90;;
8094;SDS011;4090;49.270;8.696;2023-10-13T08:23:24;13.50;;;5.82;;
8094;SDS011;4090;49.270;8.696;2023-10-13T08:26:35;11.23;;;5.22;;
8094;SDS011;4090;49.270;8.696;2023-10-13T08:29:33;11.45;;;5.72;;
8094;SDS011;4090;49.270;8.696;2023-10-13T08:32:51;8.82;;;5.55;;
8094;SDS011;4090;49.270;8.696;2023-10-13T08:35:37;9.68;;;5.30;;
8094;SDS011;4090;49.270;8.696;2023-10-13T08:38:35;9.90;;;4.75;;
8094;SDS011;4090;49.270;8.696;2023-10-13T08:41:31;9.45;;;3.80;;
8094;SDS011;4090;49.270;8.696;2023-10-13T08:44:12;7.65;;;4.53;;
8094;SDS011;4090;49.270;8.696;2023-10-13T08:47:12;6.55;;;3.50;;
8094;SDS011;4090;49.270;8.696;2023-10-13T08:49:58;6.32;;;3.47;;
8094;SDS011;4090;49.270;8.696;2023-10-13T08:52:50;8.48;;;3.60;;
8094;SDS011;4090;49.270;8.696;2023-10-13T08:55:37;9.73;;;3.60;;
8094;SDS011;4090;49.270;8.696;2023-10-13T08:58:41;6.70;;;3.80;;
8094;SDS011;4090;49.270;8.696;2023-10-13T09:01:42;6.07;;;3.70;;
8094;SDS011;4090;49.270;8.696;2023-10-13T09:04:28;8.70;;;3.83;;
8094;SDS011;4090;49.270;8.696;2023-10-13T09:07:14;8.55;;;4.28;;
8094;SDS011;4090;49.270;8.696;2023-10-13T09:10:02;8.52;;;3.85;;
8094;SDS011;4090;49.270;8.696;2023-10-13T09:12:55;7.35;;;3.85;;
8094;SDS011;4090;49.270;8.696;2023-10-13T09:15:42;5.50;;;3.53;;
8094;SDS011;4090;49.270;8.696;2023-10-13T09:18:41;10.20;;;3.65;;
8094;SDS011;4090;49.270;8.696;2023-10-13T09:21:37;8.02;;;4.00;;
8094;SDS011;4090;49.270;8.696;2023-10-13T09:24:27;7.07;;;3.72;;
8094;SDS011;4090;49.270;8.696;2023-10-13T09:27:10;8.23;;;3.85;;
8094;SDS011;4090;49.270;8.696;2023-10-13T09:30:01;8.13;;;3.47;;
8094;SDS011;4090;49.270;8.696;2023-10-13T09:32:58;6.82;;;3.58;;
8094;SDS011;4090;49.270;8.696;2023-10-13T09:35:43;12.10;;;3.83;;
8094;SDS011;4090;49.270;8.696;2023-10-13T09:38:30;11.40;;;3.75;;
8094;SDS011;4090;49.270;8.696;2023-10-13T09:41:14;11.30;;;3.63;;
8094;SDS011;4090;49.270;8.696;2023-10-13T09:43:59;13.13;;;3.42;;
8094;SDS011;4090;49.270;8.696;2023-10-13T09:46:42;7.78;;;3.58;;
8094;SDS011;4090;49.270;8.696;2023-10-13T09:49:24;7.60;;;3.50;;
8094;SDS011;4090;49.270;8.696;2023-10-13T09:52:25;8.18;;;3.28;;
8094;SDS011;4090;49.270;8.696;2023-10-13T09:55:09;11.10;;;3.58;;
8094;SDS011;4090;49.270;8.696;2023-10-13T09:58:00;9.60;;;3.25;;
8094;SDS011;4090;49.270;8.696;2023-10-13T10:00:54;7.68;;;3.58;;
8094;SDS011;4090;49.270;8.696;2023-10-13T10:03:48;5.50;;;2.95;;
8094;SDS011;4090;49.270;8.696;2023-10-13T10:06:51;6.88;;;3.03;;
8094;SDS011;4090;49.270;8.696;2023-10-13T10:09:34;6.55;;;2.92;;
8094;SDS011;4090;49.270;8.696;2023-10-13T10:12:19;8.15;;;3.40;;
8094;SDS011;4090;49.270;8.696;2023-10-13T10:15:19;6.80;;;2.78;;
8094;SDS011;4090;49.270;8.696;2023-10-13T10:18:17;6.07;;;2.88;;
8094;SDS011;4090;49.270;8.696;2023-10-13T10:21:04;5.28;;;3.13;;
8094;SDS011;4090;49.270;8.696;2023-10-13T10:23:52;7.55;;;3.30;;
8094;SDS011;4090;49.270;8.696;2023-10-13T10:26:34;9.50;;;3.33;;
8094;SDS011;4090;49.270;8.696;2023-10-13T10:29:16;7.68;;;3.45;;
8094;SDS011;4090;49.270;8.696;2023-10-13T10:31:58;6.40;;;3.25;;
8094;SDS011;4090;49.270;8.696;2023-10-13T10:34:40;5.47;;;2.92;;
8094;SDS011;4090;49.270;8.696;2023-10-13T10:37:30;5.53;;;3.00;;
8094;SDS011;4090;49.270;8.696;2023-10-13T10:40:14;7.65;;;3.35;;
8094;SDS011;4090;49.270;8.696;2023-10-13T10:43:13;4.18;;;2.53;;
8094;SDS011;4090;49.270;8.696;2023-10-13T10:45:58;5.78;;;3.03;;
8094;SDS011;4090;49.270;8.696;2023-10-13T10:48:40;4.15;;;2.53;;
8094;SDS011;4090;49.270;8.696;2023-10-13T10:51:23;6.03;;;3.30;;
8094;SDS011;4090;49.270;8.696;2023-10-13T10:54:20;8.27;;;3.28;;
8094;SDS011;4090;49.270;8.696;2023-10-13T10:57:02;9.57;;;3.35;;
8094;SDS011;4090;49.270;8.696;2023-10-13T10:59:52;7.50;;;3.50;;
8094;SDS011;4090;49.270;8.696;2023-10-13T11:02:53;5.75;;;3.22;;
8094;SDS011;4090;49.270;8.696;2023-10-13T11:05:42;9.25;;;3.30;;
8094;SDS011;4090;49.270;8.696;2023-10-13T11:08:24;10.40;;;3.40;;
8094;SDS011;4090;49.270;8.696;2023-10-13T11:11:12;10.48;;;3.00;;
8094;SDS011;4090;49.270;8.696;2023-10-13T11:13:58;5.05;;;2.97;;
8094;SDS011;4090;49.270;8.696;2023-10-13T11:16:54;9.57;;;3.50;;
8094;SDS011;4090;49.270;8.696;2023-10-13T11:19:41;6.15;;;3.20;;
8094;SDS011;4090;49.270;8.696;2023-10-13T11:22:24;7.03;;;3.47;;
8094;SDS011;4090;49.270;8.696;2023-10-13T11:25:20;8.25;;;3.70;;
8094;SDS011;4090;49.270;8.696;2023-10-13T11:28:12;7.85;;;3.30;;
8094;SDS011;4090;49.270;8.696;2023-10-13T11:31:00;5.55;;;3.28;;
8094;SDS011;4090;49.270;8.696;2023-10-13T11:33:50;6.90;;;3.47;;
8094;SDS011;4090;49.270;8.696;2023-10-13T11:36:36;4.60;;;3.40;;
8094;SDS011;4090;49.270;8.696;2023-10-13T11:39:20;9.52;;;3.95;;
8094;SDS011;4090;49.270;8.696;2023-10-13T11:42:13;7.57;;;3.30;;
8094;SDS011;4090;49.270;8.696;2023-10-13T11:44:58;7.50;;;3.35;;
8094;SDS011;4090;49.270;8.696;2023-10-13T11:48:04;7.95;;;3.42;;
8094;SDS011;4090;49.270;8.696;2023-10-13T11:50:53;6.88;;;3.40;;
8094;SDS011;4090;49.270;8.696;2023-10-13T11:53:35;6.95;;;3.70;;
8094;SDS011;4090;49.270;8.696;2023-10-13T11:56:17;7.35;;;3.33;;
8094;SDS011;4090;49.270;8.696;2023-10-13T11:59:01;5.50;;;3.45;;
8094;SDS011;4090;49.270;8.696;2023-10-13T12:01:45;7.35;;;3.72;;
8094;SDS011;4090;49.270;8.696;2023-10-13T12:04:45;7.18;;;3.45;;
8094;SDS011;4090;49.270;8.696;2023-10-13T12:07:32;6.97;;;3.45;;
8094;SDS011;4090;49.270;8.696;2023-10-13T12:10:25;7.72;;;3.22;;
8094;SDS011;4090;49.270;8.696;2023-10-13T12:13:29;8.15;;;3.20;;
8094;SDS011;4090;49.270;8.696;2023-10-13T12:16:11;7.45;;;3.72;;
8094;SDS011;4090;49.270;8.696;2023-10-13T12:18:54;8.45;;;3.45;;
8094;SDS011;4090;49.270;8.696;2023-10-13T12:21:36;7.63;;;3.40;;
8094;SDS011;4090;49.270;8.696;2023-10-13T12:24:18;12.40;;;3.95;;
8094;SDS011;4090;49.270;8.696;2023-10-13T12:27:11;4.68;;;3.17;;
8094;SDS011;4090;49.270;8.696;2023-10-13T12:30:04;7.07;;;3.20;;
8094;SDS011;4090;49.270;8.696;2023-10-13T12:32:48;7.15;;;3.13;;
8094;SDS011;4090;49.270;8.696;2023-10-13T12:35:40;11.52;;;3.25;;
8094;SDS011;4090;49.270;8.696;2023-10-13T12:38:45;10.55;;;3.47;;
8094;SDS011;4090;49.270;8.696;2023-10-13T12:41:41;7.00;;;3.13;;
8094;SDS011;4090;49.270;8.696;2023-10-13T12:44:40;5.43;;;3.42;;
8094;SDS011;4090;49.270;8.696;2023-10-13T12:47:40;5.85;;;3.45;;
8094;SDS011;4090;49.270;8.696;2023-10-13T12:50:52;5.78;;;3.30;;
8094;SDS011;4090;49.270;8.696;2023-10-13T12:53:48;6.95;;;3.20;;
8094;SDS011;4090;49.270;8.696;2023-10-13T12:56:30;5.32;;;3.20;;
8094;SDS011;4090;49.270;8.696;2023-10-13T12:59:12;7.88;;;3.40;;
8094;SDS011;4090;49.270;8.696;2023-10-13T13:01:54;7.00;;;3.35;;
8094;SDS011;4090;49.270;8.696;2023-10-13T13:04:36;9.23;;;3.55;;
8094;SDS011;4090;49.270;8.696;2023-10-13T13:07:19;5.55;;;3.35;;
8094;SDS011;4090;49.270;8.696;2023-10-13T13:10:02;6.47;;;3.40;;
8094;SDS011;4090;49.270;8.696;2023-10-13T13:12:44;8.15;;;3.40;;
8094;SDS011;4090;49.270;8.696;2023-10-13T13:15:26;6.88;;;3.00;;
8094;SDS011;4090;49.270;8.696;2023-10-13T13:18:07;5.55;;;3.53;;
8094;SDS011;4090;49.270;8.696;2023-10-13T13:20:52;6.25;;;3.47;;
8094;SDS011;4090;49.270;8.696;2023-10-13T13:23:36;5.43;;;3.10;;
8094;SDS011;4090;49.270;8.696;2023-10-13T13:26:20;8.10;;;3.30;;
8094;SDS011;4090;49.270;8.696;2023-10-13T13:29:02;7.30;;;3.60;;
8094;SDS011;4090;49.270;8.696;2023-10-13T13:31:45;6.70;;;3.35;;
8094;SDS011;4090;49.270;8.696;2023-10-13T13:34:27;5.63;;;3.47;;
8094;SDS011;4090;49.270;8.696;2023-10-13T13:37:09;8.13;;;3.33;;
8094;SDS011;4090;49.270;8.696;2023-10-13T13:39:54;7.80;;;3.67;;
8094;SDS011;4090;49.270;8.696;2023-10-13T13:42:36;6.50;;;3.40;;
8094;SDS011;4090;49.270;8.696;2023-10-13T13:45:19;9.10;;;3.20;;
8094;SDS011;4090;49.270;8.696;2023-10-13T13:48:03;6.80;;;3.50;;
8094;SDS011;4090;49.270;8.696;2023-10-13T13:50:48;6.47;;;3.38;;
8094;SDS011;4090;49.270;8.696;2023-10-13T13:53:35;9.90;;;3.47;;
8094;SDS011;4090;49.270;8.696;2023-10-13T13:56:24;8.50;;;3.60;;
8094;SDS011;4090;49.270;8.696;2023-10-13T13:59:08;11.60;;;3.30;;
8094;SDS011;4090;49.270;8.696;2023-10-13T14:01:54;6.97;;;3.17;;
8094;SDS011;4090;49.270;8.696;2023-10-13T14:04:39;10.63;;;3.40;;
8094;SDS011;4090;49.270;8.696;2023-10-13T14:07:21;7.82;;;3.47;;
8094;SDS011;4090;49.270;8.696;2023-10-13T14:10:04;10.35;;;3.53;;
8094;SDS011;4090;49.270;8.696;2023-10-13T14:12:49;7.75;;;3.10;;
8094;SDS011;4090;49.270;8.696;2023-10-13T14:15:30;7.07;;;3.00;;
8094;SDS011;4090;49.270;8.696;2023-10-13T14:18:19;5.70;;;3.25;;
8094;SDS011;4090;49.270;8.696;2023-10-13T14:21:01;7.95;;;3.13;;
8094;SDS011;4090;49.270;8.696;2023-10-13T14:23:44;7.30;;;3.03;;
8094;SDS011;4090;49.270;8.696;2023-10-13T14:26:26;5.35;;;2.90;;
8094;SDS011;4090;49.270;8.696;2023-10-13T14:29:10;8.38;;;3.15;;
8094;SDS011;4090;49.270;8.696;2023-10-13T14:31:54;7.10;;;3.70;;
8094;SDS011;4090;49.270;8.696;2023-10-13T14:34:36;6.40;;;3.08;;
8094;SDS011;4090;49.270;8.696;2023-10-13T14:37:18;7.03;;;3.10;;
8094;SDS011;4090;49.270;8.696;2023-10-13T14:40:07;10.55;;;3.33;;
8094;SDS011;4090;49.270;8.696;2023-10-13T14:42:52;3.95;;;2.78;;
8094;SDS011;4090;49.270;8.696;2023-10-13T14:45:38;7.22;;;3.50;;
8094;SDS011;4090;49.270;8.696;2023-10-13T14:48:19;7.82;;;3.10;;
8094;SDS011;4090;49.270;8.696;2023-10-13T14:51:04;5.70;;;3.00;;
8094;SDS011;4090;49.270;8.696;2023-10-13T14:53:53;5.88;;;2.97;;
8094;SDS011;4090;49.270;8.696;2023-10-13T14:56:36;6.85;;;2.95;;
8094;SDS011;4090;49.270;8.696;2023-10-13T14:59:20;4.15;;;2.80;;
8094;SDS011;4090;49.270;8.696;2023-10-13T15:02:03;4.50;;;2.70;;
8094;SDS011;4090;49.270;8.696;2023-10-13T15:04:46;9.20;;;3.10;;
8094;SDS011;4090;49.270;8.696;2023-10-13T15:07:29;5.93;;;2.80;;
8094;SDS011;4090;49.270;8.696;2023-10-13T15:10:12;6.60;;;2.60;;
8094;SDS011;4090;49.270;8.696;2023-10-13T15:12:55;7.07;;;2.90;;
8094;SDS011;4090;49.270;8.696;2023-10-13T15:15:39;9.80;;;3.00;;
8094;SDS011;4090;49.270;8.696;2023-10-13T15:18:22;5.40;;;3.22;;
8094;SDS011;4090;49.270;8.696;2023-10-13T15:21:04;8.70;;;2.90;;
8094;SDS011;4090;49.270;8.696;2023-10-13T15:23:48;7.00;;;3.20;;
8094;SDS011;4090;49.270;8.696;2023-10-13T15:26:31;10.20;;;2.90;;
8094;SDS011;4090;49.270;8.696;2023-10-13T15:29:18;7.70;;;2.70;;
8094;SDS011;4090;49.270;8.696;2023-10-13T15:32:05;4.40;;;3.03;;
8094;SDS011;4090;49.270;8.696;2023-10-13T15:35:02;6.13;;;3.33;;
8094;SDS011;4090;49.270;8.696;2023-10-13T15:37:45;7.93;;;3.15;;
8094;SDS011;4090;49.270;8.696;2023-10-13T15:40:28;6.90;;;3.20;;
8094;SDS011;4090;49.270;8.696;2023-10-13T15:43:10;8.20;;;3.00;;
8094;SDS011;4090;49.270;8.696;2023-10-13T15:45:52;6.70;;;3.33;;
8094;SDS011;4090;49.270;8.696;2023-10-13T15:48:37;6.30;;;2.80;;
8094;SDS011;4090;49.270;8.696;2023-10-13T15:51:21;5.80;;;2.90;;
8094;SDS011;4090;49.270;8.696;2023-10-13T15:54:02;5.63;;;3.00;;
8094;SDS011;4090;49.270;8.696;2023-10-13T15:56:47;9.63;;;2.97;;
8094;SDS011;4090;49.270;8.696;2023-10-13T15:59:31;5.50;;;2.53;;
8094;SDS011;4090;49.270;8.696;2023-10-13T16:02:14;5.32;;;2.80;;
8094;SDS011;4090;49.270;8.696;2023-10-13T16:05:00;6.13;;;2.70;;
8094;SDS011;4090;49.270;8.696;2023-10-13T16:07:48;5.40;;;2.80;;
8094;SDS011;4090;49.270;8.696;2023-10-13T16:10:32;7.50;;;3.08;;
8094;SDS011;4090;49.270;8.696;2023-10-13T16:13:14;6.50;;;2.90;;
8094;SDS011;4090;49.270;8.696;2023-10-13T16:15:56;3.45;;;2.70;;
8094;SDS011;4090;49.270;8.696;2023-10-13T16:18:40;8.00;;;3.20;;
8094;SDS011;4090;49.270;8.696;2023-10-13T16:21:24;8.27;;;3.15;;
8094;SDS011;4090;49.270;8.696;2023-10-13T16:24:07;6.35;;;3.13;;
8094;SDS011;4090;49.270;8.696;2023-10-13T16:26:51;8.13;;;3.90;;
8094;SDS011;4090;49.270;8.696;2023-10-13T16:29:35;6.65;;;2.83;;
8094;SDS011;4090;49.270;8.696;2023-10-13T16:32:22;6.18;;;3.00;;
8094;SDS011;4090;49.270;8.696;2023-10-13T16:35:07;5.13;;;2.45;;
8094;SDS011;4090;49.270;8.696;2023-10-13T16:37:53;4.05;;;2.55;;
8094;SDS011;4090;49.270;8.696;2023-10-13T16:40:36;3.00;;;2.47;;
8094;SDS011;4090;49.270;8.696;2023-10-13T16:43:19;4.32;;;2.45;;
8094;SDS011;4090;49.270;8.696;2023-10-13T16:46:01;5.05;;;2.72;;
8094;SDS011;4090;49.270;8.696;2023-10-13T16:48:46;4.10;;;2.30;;
8094;SDS011;4090;49.270;8.696;2023-10-13T16:51:29;6.00;;;2.45;;
8094;SDS011;4090;49.270;8.696;2023-10-13T16:54:11;6.68;;;2.40;;
8094;SDS011;4090;49.270;8.696;2023-10-13T16:56:54;5.75;;;2.63;;
8094;SDS011;4090;49.270;8.696;2023-10-13T16:59:36;4.70;;;2.50;;
8094;SDS011;4090;49.270;8.696;2023-10-13T17:02:18;5.00;;;2.35;;
8094;SDS011;4090;49.270;8.696;2023-10-13T17:05:01;9.63;;;2.80;;
8094;SDS011;4090;49.270;8.696;2023-10-13T17:07:44;9.55;;;2.63;;
8094;SDS011;4090;49.270;8.696;2023-10-13T17:10:27;4.03;;;2.28;;
8094;SDS011;4090;49.270;8.696;2023-10-13T17:13:12;6.28;;;2.60;;
8094;SDS011;4090;49.270;8.696;2023-10-13T17:15:55;7.40;;;2.92;;
8094;SDS011;4090;49.270;8.696;2023-10-13T17:18:39;3.05;;;2.38;;
8094;SDS011;4090;49.270;8.696;2023-10-13T17:21:22;5.38;;;2.22;;
8094;SDS011;4090;49.270;8.696;2023-10-13T17:24:06;6.63;;;2.60;;